createdAt,value
2022-10-05T00:01:33.259Z,100811.09
2022-10-05T00:04:13.790Z,100803.61
2022-10-05T00:06:41.863Z,100795.34
2022-10-05T00:09:16.561Z,100789.77
2022-10-05T00:11:45.079Z,100791.42
2022-10-05T00:14:18.303Z,100796.49
2022-10-05T00:16:45.663Z,100799.37
2022-10-05T00:19:24.704Z,100797.95
2022-10-05T00:21:51.829Z,100802.85
2022-10-05T00:24:20.290Z,100804.41
2022-10-05T00:26:55.396Z,100804.23
2022-10-05T00:29:25.218Z,100797.02
2022-10-05T00:31:53.324Z,100792.33
2022-10-05T00:34:20.862Z,100789.78
2022-10-05T00:36:48.744Z,100776.73
2022-10-05T00:39:18.740Z,100771.80
2022-10-05T00:42:08.536Z,100769.52
2022-10-05T00:44:55.337Z,100765.09
2022-10-05T00:47:44.784Z,100755.81
2022-10-05T00:50:44.314Z,100750.36
2022-10-05T00:53:33.278Z,100748.42
2022-10-05T00:56:22.427Z,100745.46
2022-10-05T00:59:10.352Z,100742.48
2022-10-05T01:01:45.294Z,100750.73
2022-10-05T01:04:20.562Z,100750.47
2022-10-05T01:06:53.237Z,100751.33
2022-10-05T01:09:39.039Z,100753.08
2022-10-05T01:12:14.131Z,100749.75
2022-10-05T01:14:53.098Z,100742.96
2022-10-05T01:17:28.745Z,100743.66
2022-10-05T01:20:13.297Z,100742.96
2022-10-05T01:23:01.593Z,100746.25
2022-10-05T01:26:03.180Z,100742.83
2022-10-05T01:29:03.389Z,100745.05
2022-10-05T01:32:08.657Z,100743.21
2022-10-05T01:34:39.877Z,100745.29
2022-10-05T01:37:34.978Z,100746.73
2022-10-05T01:40:24.093Z,100736.83
2022-10-05T01:43:19.196Z,100735.79
2022-10-05T01:46:14.631Z,100736.23
2022-10-05T01:49:19.312Z,100733.48
2022-10-05T01:52:17.563Z,100738.84
2022-10-05T01:54:48.406Z,100740.39
2022-10-05T01:57:43.317Z,100741.04
2022-10-05T02:00:15.436Z,100737.36
2022-10-05T02:02:57.558Z,100732.08
2022-10-05T02:05:30.459Z,100736.27
2022-10-05T02:08:04.119Z,100735.05
2022-10-05T02:10:53.734Z,100733.17
2022-10-05T02:13:41.638Z,100733.69
2022-10-05T02:16:16.005Z,100736.38
2022-10-05T02:18:52.987Z,100740.35
2022-10-05T02:21:20.544Z,100745.42
2022-10-05T02:23:49.928Z,100748.85
2022-10-05T02:26:17.318Z,100751.27
2022-10-05T02:28:52.701Z,100750.42
2022-10-05T02:31:25.004Z,100752.71
2022-10-05T02:33:52.665Z,100747.41
2022-10-05T02:36:28.206Z,100739.10
2022-10-05T02:39:43.383Z,100736.55
2022-10-05T02:42:11.688Z,100734.30
2022-10-05T02:44:49.678Z,100729.67
2022-10-05T02:47:47.855Z,100731.84
2022-10-05T02:50:18.158Z,100738.20
2022-10-05T02:53:03.537Z,100737.06
2022-10-05T02:55:33.553Z,100735.23
2022-10-05T02:58:25.597Z,100732.02
2022-10-05T03:01:03.495Z,100726.69
2022-10-05T03:03:35.558Z,100720.83
2022-10-05T03:06:26.423Z,100721.94
2022-10-05T03:09:03.455Z,100724.98
2022-10-05T03:11:49.136Z,100729.05
2022-10-05T03:14:31.958Z,100728.95
2022-10-05T03:17:23.055Z,100725.04
2022-10-05T03:20:12.734Z,100717.15
2022-10-05T03:22:53.917Z,100709.11
2022-10-05T03:25:31.117Z,100710.02
2022-10-05T03:28:14.567Z,100703.03
2022-10-05T03:31:08.300Z,100699.11
2022-10-05T03:34:13.557Z,100696.61
2022-10-05T03:37:00.377Z,100692.70
2022-10-05T03:39:40.410Z,100682.56
2022-10-05T03:42:35.181Z,100684.70
2022-10-05T03:45:33.164Z,100685.11
2022-10-05T03:48:12.196Z,100685.80
2022-10-05T03:50:58.087Z,100694.37
2022-10-05T03:53:31.650Z,100695.27
2022-10-05T03:56:10.709Z,100693.44
2022-10-05T03:59:01.310Z,100696.41
2022-10-05T04:01:51.383Z,100695.96
2022-10-05T04:04:34.518Z,100693.38
2022-10-05T04:07:02.297Z,100693.98
2022-10-05T04:09:41.383Z,100703.85
2022-10-05T04:12:20.326Z,100710.79
2022-10-05T04:14:50.421Z,100703.39
2022-10-05T04:17:32.200Z,100703.79
2022-10-05T04:20:04.867Z,100703.27
2022-10-05T04:22:43.501Z,100695.02
2022-10-05T04:25:16.178Z,100687.05
2022-10-05T04:28:13.848Z,100684.79
2022-10-05T04:30:44.693Z,100689.63
2022-10-05T04:33:18.741Z,100690.36
2022-10-05T04:35:58.495Z,100690.48
2022-10-05T04:38:47.874Z,100695.33
2022-10-05T04:41:31.832Z,100692.07
2022-10-05T04:44:25.366Z,100685.66
2022-10-05T04:47:08.701Z,100682.05
2022-10-05T04:50:03.812Z,100684.50
2022-10-05T04:52:46.856Z,100680.80
2022-10-05T04:55:29.919Z,100676.45
2022-10-05T04:58:03.154Z,100669.34
2022-10-05T05:00:49.611Z,100667.76
2022-10-05T05:03:40.464Z,100669.41
2022-10-05T05:06:20.085Z,100667.91
2022-10-05T05:09:13.654Z,100668.86
2022-10-05T05:12:04.147Z,100664.60
2022-10-05T05:15:04.696Z,100665.59
2022-10-05T05:18:10.467Z,100661.33
2022-10-05T05:21:03.098Z,100656.28
2022-10-05T05:24:04.418Z,100659.65
2022-10-05T05:27:09.493Z,100662.65
2022-10-05T05:29:52.913Z,100659.67
2022-10-05T05:32:43.317Z,100664.30
2022-10-05T05:35:28.058Z,100666.90
2022-10-05T05:38:20.613Z,100666.90
2022-10-05T05:41:08.672Z,100663.65
2022-10-05T05:43:56.898Z,100664.36
2022-10-05T05:46:51.597Z,100666.17
2022-10-05T05:49:24.558Z,100672.80
2022-10-05T05:51:56.611Z,100679.87
2022-10-05T05:54:39.578Z,100683.36
2022-10-05T05:57:19.216Z,100680.67
2022-10-05T05:59:52.691Z,100689.30
2022-10-05T06:02:24.336Z,100689.82
2022-10-05T06:04:57.636Z,100699.00
2022-10-05T06:07:30.584Z,100696.83
2022-10-05T06:10:22.923Z,100696.40
2022-10-05T06:13:05.587Z,100697.77
2022-10-05T06:15:40.651Z,100692.08
2022-10-05T06:18:13.494Z,100695.64
2022-10-05T06:20:47.298Z,100695.64
2022-10-05T06:23:28.762Z,100697.87
2022-10-05T06:26:09.741Z,100699.84
2022-10-05T06:28:38.651Z,100702.50
2022-10-05T06:31:12.295Z,100701.52
2022-10-05T06:33:49.094Z,100709.98
2022-10-05T06:36:33.407Z,100706.41
2022-10-05T06:39:27.725Z,100712.15
2022-10-05T06:42:01.424Z,100709.55
2022-10-05T06:45:07.232Z,100712.97
2022-10-05T06:48:04.921Z,100709.20
2022-10-05T06:51:15.740Z,100712.02
2022-10-05T06:54:16.955Z,100720.84
2022-10-05T06:56:50.173Z,100721.50
2022-10-05T06:59:43.357Z,100722.90
2022-10-05T07:02:29.947Z,100723.67
2022-10-05T07:05:28.976Z,100721.69
2022-10-05T07:08:01.652Z,100721.47
2022-10-05T07:10:34.422Z,100719.11
2022-10-05T07:13:20.625Z,100713.89
2022-10-05T07:15:50.637Z,100710.29
2022-10-05T07:18:23.781Z,100709.98
2022-10-05T07:21:00.700Z,100712.38
2022-10-05T07:23:42.609Z,100713.53
2022-10-05T07:26:16.139Z,100716.77
2022-10-05T07:29:08.757Z,100717.51
2022-10-05T07:31:51.774Z,100719.55
2022-10-05T07:34:47.967Z,100728.36
2022-10-05T07:37:44.457Z,100734.91
2022-10-05T07:40:18.749Z,100737.15
2022-10-05T07:43:22.159Z,100733.25
2022-10-05T07:46:10.137Z,100725.61
2022-10-05T07:48:57.449Z,100736.34
2022-10-05T07:51:37.877Z,100733.73
2022-10-05T07:54:08.618Z,100729.48
2022-10-05T07:56:43.447Z,100723.96
2022-10-05T07:59:44.283Z,100719.39
2022-10-05T08:02:43.420Z,100713.09
2022-10-05T08:05:16.775Z,100708.98
2022-10-05T08:07:45.966Z,100706.38
2022-10-05T08:10:23.599Z,100704.54
2022-10-05T08:13:09.460Z,100706.67
2022-10-05T08:15:46.333Z,100711.34
2022-10-05T08:18:19.907Z,100710.16
2022-10-05T08:20:55.781Z,100707.22
2022-10-05T08:23:34.402Z,100712.60
2022-10-05T08:26:24.790Z,100707.89
2022-10-05T08:29:11.464Z,100706.22
2022-10-05T08:31:43.900Z,100703.17
2022-10-05T08:34:48.808Z,100701.65
2022-10-05T08:37:25.306Z,100702.13
2022-10-05T08:40:18.556Z,100703.57
2022-10-05T08:42:57.896Z,100708.24
2022-10-05T08:45:51.037Z,100707.91
2022-10-05T08:48:49.521Z,100708.49
2022-10-05T08:51:35.806Z,100712.65
2022-10-05T08:54:21.628Z,100709.92
2022-10-05T08:57:11.996Z,100707.64
2022-10-05T08:59:48.459Z,100701.73
2022-10-05T09:02:32.352Z,100707.33
2022-10-05T09:05:33.277Z,100707.16
2022-10-05T09:08:12.372Z,100706.94
2022-10-05T09:11:07.697Z,100706.91
2022-10-05T09:13:59.010Z,100703.77
2022-10-05T09:16:51.671Z,100695.71
2022-10-05T09:19:50.033Z,100695.05
2022-10-05T09:22:17.521Z,100696.05
2022-10-05T09:24:58.624Z,100693.06
2022-10-05T09:27:38.016Z,100694.95
2022-10-05T09:30:06.001Z,100693.73
2022-10-05T09:32:45.208Z,100694.64
2022-10-05T09:35:21.387Z,100694.33
2022-10-05T09:38:10.636Z,100696.53
2022-10-05T09:40:37.895Z,100699.14
2022-10-05T09:43:26.965Z,100701.45
2022-10-05T09:46:14.384Z,100699.26
2022-10-05T09:49:16.738Z,100699.61
2022-10-05T09:52:09.896Z,100698.09
2022-10-05T09:54:49.457Z,100693.85
2022-10-05T09:57:35.334Z,100691.95
2022-10-05T10:00:26.738Z,100694.48
2022-10-05T10:03:08.982Z,100687.37
2022-10-05T10:05:54.939Z,100678.52
2022-10-05T10:08:52.422Z,100679.71
2022-10-05T10:11:56.627Z,100678.15
2022-10-05T10:14:45.496Z,100683.40
2022-10-05T10:17:33.275Z,100673.81
2022-10-05T10:20:15.424Z,100671.26
2022-10-05T10:23:23.530Z,100669.02
2022-10-05T10:26:00.096Z,100666.05
2022-10-05T10:28:43.815Z,100660.40
2022-10-05T10:31:39.041Z,100655.69
2022-10-05T10:34:34.362Z,100653.04
2022-10-05T10:37:20.144Z,100654.48
2022-10-05T10:40:09.097Z,100657.30
2022-10-05T10:42:59.596Z,100659.08
2022-10-05T10:45:39.023Z,100654.98
2022-10-05T10:48:32.090Z,100657.96
2022-10-05T10:51:19.636Z,100657.34
2022-10-05T10:54:24.349Z,100656.86
2022-10-05T10:57:15.972Z,100656.38
2022-10-05T10:59:51.116Z,100651.85
2022-10-05T11:02:30.377Z,100649.74
2022-10-05T11:05:03.659Z,100646.40
2022-10-05T11:07:33.754Z,100645.08
2022-10-05T11:10:35.004Z,100644.24
2022-10-05T11:13:17.634Z,100646.06
2022-10-05T11:15:44.896Z,100647.13
2022-10-05T11:18:47.336Z,100645.94
2022-10-05T11:21:26.796Z,100645.09
2022-10-05T11:24:19.929Z,100645.77
2022-10-05T11:27:25.084Z,100636.25
2022-10-05T11:30:11.197Z,100633.13
2022-10-05T11:33:03.735Z,100630.48
2022-10-05T11:36:00.015Z,100626.17
2022-10-05T11:38:40.657Z,100616.14
2022-10-05T11:41:12.614Z,100620.27
2022-10-05T11:43:57.859Z,100615.94
2022-10-05T11:46:30.914Z,100616.17
2022-10-05T11:49:00.976Z,100612.39
2022-10-05T11:51:34.544Z,100607.32
2022-10-05T11:54:23.615Z,100599.08
2022-10-05T11:57:01.258Z,100597.73
2022-10-05T11:59:40.549Z,100593.50
2022-10-05T12:02:40.048Z,100590.49
2022-10-05T12:05:59.269Z,100585.05
2022-10-05T12:08:48.797Z,100582.19
2022-10-05T12:11:43.313Z,100580.21
2022-10-05T12:14:24.510Z,100574.54
2022-10-05T12:17:15.269Z,100572.48
2022-10-05T12:19:46.071Z,100573.98
2022-10-05T12:22:59.672Z,100571.59
2022-10-05T12:25:36.115Z,100568.08
2022-10-05T12:28:11.470Z,100568.46
2022-10-05T12:30:52.152Z,100567.31
2022-10-05T12:33:25.179Z,100566.30
2022-10-05T12:36:12.738Z,100566.41
2022-10-05T12:38:49.720Z,100564.05
2022-10-05T12:41:28.062Z,100566.44
2022-10-05T12:44:16.276Z,100567.64
2022-10-05T12:47:02.558Z,100561.88
2022-10-05T12:49:44.648Z,100558.71
2022-10-05T12:52:38.584Z,100559.59
2022-10-05T12:55:22.389Z,100556.10
2022-10-05T12:58:35.671Z,100559.04
2022-10-05T13:01:07.961Z,100555.39
2022-10-05T13:03:38.633Z,100559.42
2022-10-05T13:06:22.476Z,100555.26
2022-10-05T13:09:08.994Z,100553.02
2022-10-05T13:11:39.182Z,100550.35
2022-10-05T13:14:36.458Z,100545.60
2022-10-05T13:17:08.816Z,100540.38
2022-10-05T13:19:39.853Z,100543.79
2022-10-05T13:22:21.455Z,100545.14
2022-10-05T13:24:57.190Z,100538.95
2022-10-05T13:27:30.459Z,100542.75
2022-10-05T13:29:59.396Z,100544.65
2022-10-05T13:32:39.538Z,100542.33
2022-10-05T13:36:00.302Z,100540.45
2022-10-05T13:38:54.637Z,100538.30
2022-10-05T13:41:44.114Z,100534.17
2022-10-05T13:44:15.057Z,100531.39
2022-10-05T13:47:04.214Z,100528.15
2022-10-05T13:50:09.082Z,100524.19
2022-10-05T13:53:11.914Z,100524.13
2022-10-05T13:56:01.600Z,100524.75
2022-10-05T13:58:28.846Z,100520.95
2022-10-05T14:01:00.206Z,100520.45
2022-10-05T14:03:30.348Z,100521.66
2022-10-05T14:06:00.220Z,100521.83
2022-10-05T14:08:34.214Z,100524.10
2022-10-05T14:11:22.043Z,100526.97
2022-10-05T14:13:50.567Z,100528.72
2022-10-05T14:16:24.403Z,100530.84
2022-10-05T14:18:54.655Z,100527.15
2022-10-05T14:21:29.117Z,100524.66
2022-10-05T14:23:59.654Z,100523.45
2022-10-05T14:26:26.786Z,100520.27
2022-10-05T14:29:17.338Z,100518.42
2022-10-05T14:31:55.357Z,100512.71
2022-10-05T14:34:37.072Z,100514.45
2022-10-05T14:37:21.115Z,100508.82
2022-10-05T14:39:50.312Z,100509.88
2022-10-05T14:42:25.657Z,100506.05
2022-10-05T14:45:01.942Z,100508.52
2022-10-05T14:47:32.120Z,100503.55
2022-10-05T14:50:26.631Z,100508.51
2022-10-05T14:53:12.224Z,100503.95
2022-10-05T14:55:51.058Z,100506.09
2022-10-05T14:58:56.743Z,100506.52
2022-10-05T15:01:31.204Z,100496.95
2022-10-05T15:04:07.476Z,100500.05
2022-10-05T15:07:15.696Z,100497.55
2022-10-05T15:10:02.700Z,100498.20
2022-10-05T15:12:36.230Z,100491.53
2022-10-05T15:15:12.061Z,100485.35
2022-10-05T15:17:50.979Z,100477.34
2022-10-05T15:20:24.893Z,100474.16
2022-10-05T15:23:08.426Z,100479.42
2022-10-05T15:25:40.746Z,100479.44
2022-10-05T15:28:14.156Z,100476.03
2022-10-05T15:30:48.227Z,100473.09
2022-10-05T15:33:28.076Z,100473.63
2022-10-05T15:36:00.859Z,100474.14
2022-10-05T15:38:32.810Z,100462.67
2022-10-05T15:41:21.453Z,100456.62
2022-10-05T15:44:10.217Z,100457.22
2022-10-05T15:46:56.808Z,100456.05
2022-10-05T15:49:34.711Z,100461.74
2022-10-05T15:52:28.381Z,100463.50
2022-10-05T15:55:20.215Z,100460.20
2022-10-05T15:57:59.958Z,100463.18
2022-10-05T16:00:28.428Z,100462.41
2022-10-05T16:03:09.103Z,100465.18
2022-10-05T16:06:03.494Z,100458.04
2022-10-05T16:08:49.372Z,100462.52
2022-10-05T16:11:37.004Z,100464.81
2022-10-05T16:14:34.977Z,100462.67
2022-10-05T16:17:14.513Z,100462.06
2022-10-05T16:20:07.885Z,100459.63
2022-10-05T16:22:59.909Z,100462.81
2022-10-05T16:25:34.970Z,100465.77
2022-10-05T16:28:17.003Z,100467.15
2022-10-05T16:31:01.109Z,100465.08
2022-10-05T16:33:37.247Z,100464.88
2022-10-05T16:36:18.020Z,100468.61
2022-10-05T16:38:48.446Z,100463.83
2022-10-05T16:41:43.902Z,100467.80
2022-10-05T16:44:39.654Z,100472.10
2022-10-05T16:47:31.404Z,100475.54
2022-10-05T16:50:22.419Z,100477.05
2022-10-05T16:53:21.733Z,100478.55
2022-10-05T16:55:53.515Z,100474.95
2022-10-05T16:58:24.128Z,100478.27
2022-10-05T17:01:23.337Z,100481.21
2022-10-05T17:04:12.497Z,100475.38
2022-10-05T17:06:48.634Z,100477.80
2022-10-05T17:09:36.060Z,100478.55
2022-10-05T17:12:40.687Z,100481.35
2022-10-05T17:15:20.228Z,100485.24
2022-10-05T17:18:02.020Z,100483.30
2022-10-05T17:20:56.232Z,100484.91
2022-10-05T17:23:44.456Z,100485.85
2022-10-05T17:26:24.012Z,100487.11
2022-10-05T17:29:10.240Z,100485.27
2022-10-05T17:32:00.379Z,100489.39
2022-10-05T17:34:38.926Z,100487.77
2022-10-05T17:37:39.829Z,100483.46
2022-10-05T17:40:36.677Z,100483.39
2022-10-05T17:43:16.485Z,100482.29
2022-10-05T17:45:46.327Z,100478.02
2022-10-05T17:48:42.166Z,100476.91
2022-10-05T17:51:57.544Z,100473.13
2022-10-05T17:55:09.343Z,100472.95
2022-10-05T17:57:37.395Z,100468.52
2022-10-05T18:00:07.076Z,100471.27
2022-10-05T18:02:40.407Z,100470.83
2022-10-05T18:05:12.884Z,100463.69
2022-10-05T18:07:41.264Z,100469.92
2022-10-05T18:10:17.937Z,100467.85
2022-10-05T18:13:02.294Z,100466.02
2022-10-05T18:15:30.194Z,100465.14
2022-10-05T18:18:19.957Z,100463.56
2022-10-05T18:21:17.713Z,100458.43
2022-10-05T18:23:52.738Z,100461.55
2022-10-05T18:26:35.673Z,100460.29
2022-10-05T18:29:15.027Z,100453.42
2022-10-05T18:32:01.535Z,100449.24
2022-10-05T18:35:00.990Z,100446.77
2022-10-05T18:37:36.139Z,100450.11
2022-10-05T18:40:27.733Z,100447.36
2022-10-05T18:43:21.845Z,100447.48
2022-10-05T18:46:16.058Z,100450.47
2022-10-05T18:49:20.949Z,100447.70
2022-10-05T18:51:53.656Z,100442.05
2022-10-05T18:54:59.095Z,100448.60
2022-10-05T18:57:42.933Z,100447.73
2022-10-05T19:00:20.700Z,100447.34
2022-10-05T19:02:59.205Z,100446.54
2022-10-05T19:05:52.911Z,100448.13
2022-10-05T19:08:28.620Z,100450.09
2022-10-05T19:11:23.678Z,100450.79
2022-10-05T19:14:00.163Z,100454.85
2022-10-05T19:16:37.523Z,100451.05
2022-10-05T19:19:16.320Z,100451.38
2022-10-05T19:22:11.973Z,100452.33
2022-10-05T19:24:42.192Z,100451.62
2022-10-05T19:27:36.344Z,100451.91
2022-10-05T19:30:23.696Z,100452.95
2022-10-05T19:32:58.885Z,100452.36
2022-10-05T19:35:41.853Z,100449.95
2022-10-05T19:38:42.856Z,100453.13
2022-10-05T19:41:17.229Z,100456.05
2022-10-05T19:43:58.826Z,100451.73
2022-10-05T19:46:55.679Z,100449.15
2022-10-05T19:49:44.510Z,100451.77
2022-10-05T19:52:14.527Z,100453.20
2022-10-05T19:54:42.870Z,100450.91
2022-10-05T19:57:18.423Z,100447.86
2022-10-05T19:59:48.145Z,100451.33
2022-10-05T20:02:18.177Z,100455.64
2022-10-05T20:04:50.023Z,100452.95
2022-10-05T20:07:22.345Z,100458.48
2022-10-05T20:10:15.077Z,100457.91
2022-10-05T20:12:51.141Z,100459.95
2022-10-05T20:15:52.134Z,100463.08
2022-10-05T20:18:57.899Z,100463.05
2022-10-05T20:22:02.237Z,100468.90
2022-10-05T20:24:32.311Z,100469.80
2022-10-05T20:27:07.139Z,100473.36
2022-10-05T20:29:39.602Z,100472.91
2022-10-05T20:32:15.603Z,100480.70
2022-10-05T20:34:44.742Z,100477.34
2022-10-05T20:37:15.121Z,100483.36
2022-10-05T20:39:42.773Z,100487.50
2022-10-05T20:42:11.160Z,100487.66
2022-10-05T20:44:38.883Z,100485.48
2022-10-05T20:47:09.210Z,100488.06
2022-10-05T20:49:37.960Z,100488.82
2022-10-05T20:52:06.742Z,100490.75
2022-10-05T20:54:34.413Z,100493.02
2022-10-05T20:57:02.959Z,100490.08
2022-10-05T20:59:30.246Z,100494.59
2022-10-05T21:01:59.406Z,100497.96
2022-10-05T21:04:32.792Z,100501.83
2022-10-05T21:07:07.360Z,100502.52
2022-10-05T21:09:34.610Z,100505.15
2022-10-05T21:12:01.762Z,100507.94
2022-10-05T21:14:33.395Z,100510.91
2022-10-05T21:17:01.278Z,100510.55
2022-10-05T21:19:30.056Z,100514.45
2022-10-05T21:22:01.027Z,100514.95
2022-10-05T21:24:28.195Z,100514.75
2022-10-05T21:26:58.456Z,100514.70
2022-10-05T21:29:25.601Z,100520.39
2022-10-05T21:31:52.949Z,100521.95
2022-10-05T21:34:20.313Z,100530.77
2022-10-05T21:36:47.597Z,100535.10
2022-10-05T21:39:14.714Z,100537.54
2022-10-05T21:41:41.870Z,100538.08
2022-10-05T21:44:10.258Z,100543.02
2022-10-05T21:46:38.638Z,100545.44
2022-10-05T21:49:07.341Z,100550.77
2022-10-05T21:51:35.696Z,100553.39
2022-10-05T21:54:16.357Z,100560.70
2022-10-05T21:56:45.860Z,100564.83
2022-10-05T21:59:15.875Z,100565.96
2022-10-05T22:01:44.049Z,100569.13
2022-10-05T22:04:11.192Z,100569.83
2022-10-05T22:06:38.296Z,100570.96
2022-10-05T22:09:05.820Z,100580.52
2022-10-05T22:11:33.699Z,100582.27
2022-10-05T22:14:04.021Z,100580.35
2022-10-05T22:16:34.674Z,100585.86
2022-10-05T22:19:06.484Z,100591.81
2022-10-05T22:21:38.296Z,100594.88
2022-10-05T22:24:05.998Z,100598.73
2022-10-05T22:26:33.379Z,100597.45
2022-10-05T22:29:02.080Z,100601.05
2022-10-05T22:31:29.536Z,100600.17
2022-10-05T22:33:57.306Z,100603.77
2022-10-05T22:36:24.504Z,100602.30
2022-10-05T22:38:51.868Z,100598.63
2022-10-05T22:41:19.953Z,100598.15
2022-10-05T22:43:50.464Z,100599.92
2022-10-05T22:46:18.036Z,100599.73
2022-10-05T22:48:45.293Z,100599.89
2022-10-05T22:51:12.649Z,100607.00
2022-10-05T22:53:40.109Z,100608.42
2022-10-05T22:56:12.896Z,100605.09
2022-10-05T22:58:40.750Z,100610.14
2022-10-05T23:01:10.427Z,100611.52
2022-10-05T23:03:37.790Z,100615.04
2022-10-05T23:06:10.609Z,100615.91
2022-10-05T23:08:38.608Z,100615.98
2022-10-05T23:11:05.763Z,100615.96
2022-10-05T23:13:33.872Z,100619.89
2022-10-05T23:16:16.227Z,100621.34
2022-10-05T23:18:44.058Z,100621.40
2022-10-05T23:21:12.040Z,100622.08
2022-10-05T23:23:41.637Z,100621.27
2022-10-05T23:26:10.838Z,100624.39
2022-10-05T23:28:40.648Z,100624.52
2022-10-05T23:31:09.276Z,100624.79
2022-10-05T23:33:36.697Z,100625.92
2022-10-05T23:36:07.735Z,100625.89
2022-10-05T23:38:36.308Z,100629.98
2022-10-05T23:41:04.791Z,100631.10
2022-10-05T23:43:33.646Z,100634.67
2022-10-05T23:46:00.996Z,100635.67
2022-10-05T23:48:28.533Z,100638.11
2022-10-05T23:50:56.350Z,100636.71
2022-10-05T23:53:23.811Z,100644.25
2022-10-05T23:55:54.676Z,100643.38
2022-10-05T23:58:22.535Z,100641.16
